Time;durP1;ratioP1;P1;durP2;ratioP2;P2;SDS_P1;SDS_P2;PMS_P1;PMS_P2;Temp;Humidity;BMP_temperature;BMP_pressure;BME280_temperature;BME280_humidity;BME280_pressure;Samples;Min_cycle;Max_cycle;Signal;HPM_P1;HPM_P2
2021/01/08 00:02:20;;;;;;;30.80;21.13;;;;;;;;;;5048231;28;20600;-63
2021/01/08 00:04:46;;;;;;;32.22;21.80;;;;;;;;;;5047441;28;20212;-64
2021/01/08 00:07:12;;;;;;;29.77;20.25;;;;;;;;;;5048352;28;20223;-64
2021/01/08 00:09:39;;;;;;;29.90;20.33;;;;;;;;;;5048042;28;20200;-63
2021/01/08 00:12:06;;;;;;;29.60;19.60;;;;;;;;;;5046728;28;20208;-62
2021/01/08 00:14:32;;;;;;;31.33;20.00;;;;;;;;;;5051548;28;20185;-63
2021/01/08 00:16:58;;;;;;;28.27;18.90;;;;;;;;;;5051659;28;20208;-64
2021/01/08 00:19:25;;;;;;;24.38;16.10;;;;;;;;;;5051920;28;20184;-64
2021/01/08 00:21:51;;;;;;;26.50;17.30;;;;;;;;;;5051790;28;20235;-64
2021/01/08 00:24:17;;;;;;;28.23;16.90;;;;;;;;;;5050832;28;20184;-63
2021/01/08 00:26:44;;;;;;;27.40;17.90;;;;;;;;;;5051429;28;20209;-64
2021/01/08 00:29:10;;;;;;;26.35;18.13;;;;;;;;;;5051197;28;20196;-63
2021/01/08 00:31:40;;;;;;;24.83;16.33;;;;;;;;;;5052336;28;20207;-63
2021/01/08 00:34:07;;;;;;;26.35;16.35;;;;;;;;;;5050949;28;20600;-63
2021/01/08 00:36:33;;;;;;;24.60;16.05;;;;;;;;;;5051388;28;20251;-62
2021/01/08 00:39:00;;;;;;;20.05;13.13;;;;;;;;;;5051353;28;20193;-63
2021/01/08 00:41:31;;;;;;;17.10;11.52;;;;;;;;;;5051248;28;20587;-64
2021/01/08 00:43:57;;;;;;;19.92;12.48;;;;;;;;;;5050412;28;20671;-63
2021/01/08 00:46:30;;;;;;;18.13;12.80;;;;;;;;;;5051228;28;20208;-65
2021/01/08 00:48:57;;;;;;;18.40;12.90;;;;;;;;;;5051106;28;20193;-63
2021/01/08 00:51:24;;;;;;;21.95;13.88;;;;;;;;;;5051461;28;20208;-64
2021/01/08 00:53:51;;;;;;;19.13;13.55;;;;;;;;;;5053869;28;20185;-64
2021/01/08 00:56:18;;;;;;;18.88;13.45;;;;;;;;;;5051097;28;20255;-66
2021/01/08 00:58:46;;;;;;;17.98;13.82;;;;;;;;;;5049666;28;20300;-65
2021/01/08 01:01:13;;;;;;;19.10;13.65;;;;;;;;;;5050224;28;20203;-65
2021/01/08 01:03:40;;;;;;;21.25;14.50;;;;;;;;;;5050537;28;20183;-64
2021/01/08 01:06:06;;;;;;;16.35;13.07;;;;;;;;;;5050348;28;20226;-64
2021/01/08 01:08:32;;;;;;;17.63;13.80;;;;;;;;;;5051166;28;20256;-63
2021/01/08 01:10:59;;;;;;;18.42;13.52;;;;;;;;;;5050549;28;20188;-63
2021/01/08 01:13:25;;;;;;;18.80;14.05;;;;;;;;;;5050668;28;20299;-63
2021/01/08 01:15:51;;;;;;;18.83;13.75;;;;;;;;;;5049975;28;20209;-63
2021/01/08 01:18:18;;;;;;;18.00;13.32;;;;;;;;;;5050880;28;20654;-62
2021/01/08 01:20:45;;;;;;;17.73;12.85;;;;;;;;;;5050476;28;20692;-63
2021/01/08 01:23:11;;;;;;;17.73;13.25;;;;;;;;;;5049908;28;20220;-63
2021/01/08 01:25:37;;;;;;;17.92;13.07;;;;;;;;;;5049963;28;20177;-66
2021/01/08 01:28:04;;;;;;;17.30;13.55;;;;;;;;;;5050690;28;20201;-63
2021/01/08 01:30:31;;;;;;;16.70;12.35;;;;;;;;;;5050523;28;20181;-62
2021/01/08 01:32:58;;;;;;;16.23;12.68;;;;;;;;;;5049909;28;20287;-63
2021/01/08 01:35:25;;;;;;;17.40;13.18;;;;;;;;;;5050718;28;20236;-63
2021/01/08 01:40:37;;;;;;;17.55;13.38;;;;;;;;;;5051794;28;20177;-63
2021/01/08 01:43:03;;;;;;;20.45;14.00;;;;;;;;;;5051415;28;20220;-63
2021/01/08 01:45:30;;;;;;;17.80;13.30;;;;;;;;;;5050273;28;20205;-63
2021/01/08 01:47:56;;;;;;;18.13;13.52;;;;;;;;;;5051543;28;20239;-64
2021/01/08 01:50:25;;;;;;;18.48;13.50;;;;;;;;;;5049705;28;20228;-63
2021/01/08 01:52:52;;;;;;;20.35;14.93;;;;;;;;;;5049996;28;20189;-63
2021/01/08 01:55:20;;;;;;;22.73;15.20;;;;;;;;;;5049441;28;20204;-64
2021/01/08 01:57:46;;;;;;;22.88;16.02;;;;;;;;;;5050094;28;20186;-64
2021/01/08 02:00:12;;;;;;;21.85;15.88;;;;;;;;;;5049561;28;20200;-62
2021/01/08 02:02:57;;;;;;;23.42;16.80;;;;;;;;;;5049714;28;20227;-64
2021/01/08 02:05:23;;;;;;;24.75;17.23;;;;;;;;;;5049318;28;20197;-64
2021/01/08 02:08:22;;;;;;;23.15;16.08;;;;;;;;;;5049832;28;20208;-63
2021/01/08 02:11:05;;;;;;;24.80;16.15;;;;;;;;;;5015590;28;20210;-63
2021/01/08 02:13:41;;;;;;;30.20;20.42;;;;;;;;;;5049248;28;20577;-63
2021/01/08 02:16:08;;;;;;;35.40;22.25;;;;;;;;;;5049213;28;20225;-63
2021/01/08 02:18:36;;;;;;;33.92;21.95;;;;;;;;;;5049570;28;20610;-62
2021/01/08 02:21:05;;;;;;;33.67;21.38;;;;;;;;;;5049096;28;20201;-62
2021/01/08 02:23:57;;;;;;;33.55;21.92;;;;;;;;;;5056077;28;20240;-63
2021/01/08 02:26:24;;;;;;;34.75;22.17;;;;;;;;;;5046778;28;20719;-63
2021/01/08 02:28:51;;;;;;;30.05;20.45;;;;;;;;;;5048213;28;20204;-66
2021/01/08 02:31:18;;;;;;;29.88;20.50;;;;;;;;;;5048548;28;20208;-62
2021/01/08 02:33:45;;;;;;;33.22;20.73;;;;;;;;;;5049593;28;20189;-63
2021/01/08 02:36:12;;;;;;;31.63;20.35;;;;;;;;;;5047677;28;20224;-63
2021/01/08 02:38:38;;;;;;;34.92;22.00;;;;;;;;;;5049458;28;20195;-63
2021/01/08 02:41:06;;;;;;;43.55;28.58;;;;;;;;;;5048763;28;20656;-63
2021/01/08 02:43:33;;;;;;;48.50;31.05;;;;;;;;;;5049229;28;20239;-64
2021/01/08 02:46:00;;;;;;;59.75;35.33;;;;;;;;;;5049033;28;20569;-63
2021/01/08 02:48:26;;;;;;;55.50;33.95;;;;;;;;;;5049195;28;20180;-63
2021/01/08 02:50:52;;;;;;;53.38;34.50;;;;;;;;;;5048295;28;20176;-62
2021/01/08 02:53:21;;;;;;;64.38;37.63;;;;;;;;;;5048781;28;20384;-63
2021/01/08 02:55:58;;;;;;;58.72;36.17;;;;;;;;;;5048664;28;20205;-62
2021/01/08 02:58:25;;;;;;;61.35;36.53;;;;;;;;;;5049056;28;20208;-64
2021/01/08 03:00:52;;;;;;;64.50;39.40;;;;;;;;;;5048626;28;20673;-62
2021/01/08 03:03:18;;;;;;;61.00;35.63;;;;;;;;;;5049015;28;20212;-63
2021/01/08 03:05:45;;;;;;;58.65;35.80;;;;;;;;;;5048937;28;20232;-63
2021/01/08 03:08:11;;;;;;;52.67;33.33;;;;;;;;;;5049145;28;20224;-64
2021/01/08 03:10:37;;;;;;;53.38;31.80;;;;;;;;;;5048584;28;20220;-62
2021/01/08 03:13:06;;;;;;;44.80;27.52;;;;;;;;;;5048705;28;20252;-63
2021/01/08 03:15:32;;;;;;;35.15;22.98;;;;;;;;;;5048411;28;20223;-63
2021/01/08 03:17:59;;;;;;;32.75;22.08;;;;;;;;;;5048835;28;20192;-64
2021/01/08 03:20:25;;;;;;;33.55;23.02;;;;;;;;;;5048616;28;20307;-64
2021/01/08 03:22:51;;;;;;;31.52;22.42;;;;;;;;;;5048866;28;20208;-64
2021/01/08 03:25:18;;;;;;;34.60;23.50;;;;;;;;;;5048064;28;20196;-62
2021/01/08 03:27:44;;;;;;;34.13;23.45;;;;;;;;;;5048769;28;20196;-62
2021/01/08 03:30:10;;;;;;;38.80;25.48;;;;;;;;;;5047931;28;20311;-62
2021/01/08 03:32:37;;;;;;;38.25;23.83;;;;;;;;;;5049001;28;20637;-62
2021/01/08 03:35:05;;;;;;;36.65;24.20;;;;;;;;;;5047540;28;20612;-62
2021/01/08 03:37:31;;;;;;;34.15;22.65;;;;;;;;;;5048791;28;20673;-63
2021/01/08 03:39:57;;;;;;;30.23;21.65;;;;;;;;;;5048138;28;20568;-64
2021/01/08 03:42:24;;;;;;;29.75;21.55;;;;;;;;;;5048834;28;20226;-63
2021/01/08 03:44:50;;;;;;;32.05;21.92;;;;;;;;;;5048022;28;20215;-62
2021/01/08 03:47:16;;;;;;;34.72;23.20;;;;;;;;;;5050020;28;20320;-62
2021/01/08 03:49:42;;;;;;;36.60;23.52;;;;;;;;;;5051850;28;20204;-62
2021/01/08 03:52:09;;;;;;;32.83;22.73;;;;;;;;;;5052421;28;20291;-63
2021/01/08 03:54:35;;;;;;;34.38;22.98;;;;;;;;;;5060467;28;20191;-63
2021/01/08 03:57:02;;;;;;;33.35;22.95;;;;;;;;;;5052960;28;20635;-63
2021/01/08 03:59:28;;;;;;;35.42;23.75;;;;;;;;;;5051833;28;20258;-62
2021/01/08 04:01:55;;;;;;;37.05;24.70;;;;;;;;;;5052319;28;20274;-63
2021/01/08 04:04:21;;;;;;;34.08;24.17;;;;;;;;;;5051223;28;20295;-63
2021/01/08 04:06:47;;;;;;;35.25;22.80;;;;;;;;;;5052188;28;20196;-63
2021/01/08 04:09:13;;;;;;;33.08;23.33;;;;;;;;;;5051647;28;20659;-63
2021/01/08 04:11:40;;;;;;;34.03;23.30;;;;;;;;;;5052001;28;20196;-63
2021/01/08 04:14:06;;;;;;;34.47;23.33;;;;;;;;;;5051051;28;20558;-64
2021/01/08 04:16:35;;;;;;;34.22;23.65;;;;;;;;;;5051840;28;20363;-64
2021/01/08 04:19:02;;;;;;;34.03;22.63;;;;;;;;;;5051822;28;20500;-63
2021/01/08 04:21:29;;;;;;;35.08;23.42;;;;;;;;;;5051800;28;20213;-63
2021/01/08 04:23:55;;;;;;;32.45;22.42;;;;;;;;;;5051293;28;20224;-62
2021/01/08 04:26:21;;;;;;;30.35;20.88;;;;;;;;;;5051606;28;20204;-62
2021/01/08 04:28:48;;;;;;;30.85;21.73;;;;;;;;;;5051824;28;20203;-61
2021/01/08 04:31:14;;;;;;;31.48;21.63;;;;;;;;;;5051393;28;20712;-62
2021/01/08 04:33:41;;;;;;;35.17;23.08;;;;;;;;;;5051006;28;20565;-65
2021/01/08 04:36:09;;;;;;;32.03;21.60;;;;;;;;;;5051349;28;20738;-64
2021/01/08 04:38:38;;;;;;;30.25;21.05;;;;;;;;;;5051824;28;20208;-64
2021/01/08 04:41:05;;;;;;;31.45;21.45;;;;;;;;;;5051268;28;20177;-63
2021/01/08 04:43:31;;;;;;;28.40;21.48;;;;;;;;;;5051396;28;20238;-62
2021/01/08 04:46:01;;;;;;;29.38;20.13;;;;;;;;;;5050695;28;20295;-63
2021/01/08 04:48:27;;;;;;;25.00;18.17;;;;;;;;;;5051479;28;20191;-63
2021/01/08 04:50:58;;;;;;;25.80;19.05;;;;;;;;;;5049811;28;20192;-62
2021/01/08 04:53:26;;;;;;;28.30;20.30;;;;;;;;;;5051357;28;20705;-64
2021/01/08 04:55:53;;;;;;;29.70;21.13;;;;;;;;;;5050708;28;20204;-64
2021/01/08 04:58:20;;;;;;;27.20;19.95;;;;;;;;;;5050432;28;20215;-63
2021/01/08 05:00:47;;;;;;;29.35;21.50;;;;;;;;;;5050647;28;20238;-63
2021/01/08 05:03:14;;;;;;;32.20;22.70;;;;;;;;;;5051166;28;20315;-64
2021/01/08 05:05:40;;;;;;;31.40;22.67;;;;;;;;;;5051188;28;20200;-64
2021/01/08 05:08:10;;;;;;;36.03;24.17;;;;;;;;;;5050704;28;20254;-64
2021/01/08 05:10:36;;;;;;;36.10;24.08;;;;;;;;;;5050608;28;20189;-65
2021/01/08 05:13:03;;;;;;;34.05;23.52;;;;;;;;;;5050839;28;20303;-64
2021/01/08 05:15:29;;;;;;;38.17;24.65;;;;;;;;;;5045335;28;20256;-64
2021/01/08 05:17:56;;;;;;;33.25;21.98;;;;;;;;;;5050603;28;20205;-66
2021/01/08 05:20:23;;;;;;;39.00;25.98;;;;;;;;;;5049819;28;20536;-63
2021/01/08 05:22:49;;;;;;;36.85;25.23;;;;;;;;;;5050700;28;20337;-63
2021/01/08 05:25:15;;;;;;;36.75;24.58;;;;;;;;;;5054250;28;20314;-65
2021/01/08 05:27:42;;;;;;;38.13;25.38;;;;;;;;;;5050868;28;20200;-66
2021/01/08 05:30:24;;;;;;;38.85;25.02;;;;;;;;;;5049126;28;20184;-63
2021/01/08 05:32:57;;;;;;;33.80;22.88;;;;;;;;;;5048509;28;20753;-64
2021/01/08 05:35:24;;;;;;;32.10;21.67;;;;;;;;;;5048956;28;20240;-62
2021/01/08 05:37:52;;;;;;;29.63;20.98;;;;;;;;;;5049601;28;20207;-64
2021/01/08 05:40:24;;;;;;;30.63;20.25;;;;;;;;;;5049478;28;20239;-63
2021/01/08 05:42:53;;;;;;;32.92;21.17;;;;;;;;;;5049921;28;20226;-63
2021/01/08 05:45:20;;;;;;;30.02;21.15;;;;;;;;;;5048763;28;20204;-64
2021/01/08 05:47:47;;;;;;;30.13;19.63;;;;;;;;;;5049800;28;20200;-65
2021/01/08 05:50:15;;;;;;;26.63;19.67;;;;;;;;;;5049421;28;20192;-64
2021/01/08 05:52:42;;;;;;;27.35;18.65;;;;;;;;;;5049725;28;20231;-66
2021/01/08 05:55:12;;;;;;;31.38;21.13;;;;;;;;;;5048116;28;20183;-65
2021/01/08 05:57:41;;;;;;;41.97;30.48;;;;;;;;;;5049576;28;20251;-68
2021/01/08 06:00:08;;;;;;;59.85;45.65;;;;;;;;;;5048646;28;20649;-67
2021/01/08 06:02:35;;;;;;;32.28;22.45;;;;;;;;;;5049301;28;20291;-65
2021/01/08 06:05:05;;;;;;;28.63;20.33;;;;;;;;;;5048745;28;20632;-68
2021/01/08 06:07:34;;;;;;;29.77;20.58;;;;;;;;;;5048182;28;20200;-64
2021/01/08 06:10:02;;;;;;;29.92;20.83;;;;;;;;;;5049407;28;20295;-64
2021/01/08 06:12:32;;;;;;;30.55;21.40;;;;;;;;;;5049543;28;20291;-64
2021/01/08 06:14:59;;;;;;;28.75;21.30;;;;;;;;;;5048324;28;20276;-64
2021/01/08 06:17:26;;;;;;;31.27;21.63;;;;;;;;;;5049856;28;20283;-66
2021/01/08 06:20:00;;;;;;;78.18;54.97;;;;;;;;;;5051056;28;20208;-63
2021/01/08 06:22:27;;;;;;;35.95;26.20;;;;;;;;;;5051462;28;20576;-66
2021/01/08 06:24:54;;;;;;;37.13;24.85;;;;;;;;;;5051589;28;20208;-66
2021/01/08 06:27:24;;;;;;;34.88;23.50;;;;;;;;;;5049533;28;20187;-67
2021/01/08 06:29:58;;;;;;;41.08;26.92;;;;;;;;;;5049536;28;20208;-66
2021/01/08 06:32:27;;;;;;;46.03;27.70;;;;;;;;;;5049200;28;20210;-68
2021/01/08 06:34:54;;;;;;;43.42;28.58;;;;;;;;;;5048765;28;20237;-68
2021/01/08 06:37:23;;;;;;;44.65;28.85;;;;;;;;;;5049581;28;20303;-69
2021/01/08 06:39:55;;;;;;;47.13;29.45;;;;;;;;;;5048942;28;20197;-67
2021/01/08 06:42:26;;;;;;;58.08;33.83;;;;;;;;;;5049492;28;20607;-67
2021/01/08 06:44:54;;;;;;;55.78;32.83;;;;;;;;;;5048777;28;20193;-65
2021/01/08 06:47:21;;;;;;;58.28;34.55;;;;;;;;;;5049721;28;20212;-65
2021/01/08 06:49:52;;;;;;;53.63;34.08;;;;;;;;;;5048974;28;20902;-65
2021/01/08 06:52:20;;;;;;;119.97;56.88;;;;;;;;;;5049498;28;20284;-66
2021/01/08 06:54:51;;;;;;;209.48;114.13;;;;;;;;;;5051857;28;20573;-64
2021/01/08 06:57:18;;;;;;;52.30;32.20;;;;;;;;;;5049234;28;20678;-64
2021/01/08 07:00:01;;;;;;;57.63;38.72;;;;;;;;;;5048507;28;20184;-65
2021/01/08 07:02:27;;;;;;;51.55;32.72;;;;;;;;;;5049335;28;20220;-66
2021/01/08 07:04:54;;;;;;;45.28;29.10;;;;;;;;;;5048702;28;20196;-65
2021/01/08 07:07:27;;;;;;;46.42;28.55;;;;;;;;;;5049143;28;20212;-65
2021/01/08 07:09:54;;;;;;;49.75;29.60;;;;;;;;;;5029235;28;20201;-65
2021/01/08 07:12:22;;;;;;;43.75;28.48;;;;;;;;;;5028661;28;20177;-65
2021/01/08 07:14:48;;;;;;;48.13;29.10;;;;;;;;;;5029174;28;20231;-64
2021/01/08 07:17:15;;;;;;;43.10;28.05;;;;;;;;;;5029353;28;20197;-64
2021/01/08 07:19:42;;;;;;;43.22;27.98;;;;;;;;;;5028251;28;20276;-65
2021/01/08 07:22:12;;;;;;;44.30;28.55;;;;;;;;;;5030823;28;20601;-66
2021/01/08 07:24:41;;;;;;;42.65;27.23;;;;;;;;;;5043021;28;20299;-65
2021/01/08 07:27:19;;;;;;;43.28;27.35;;;;;;;;;;5052785;28;20751;-66
2021/01/08 07:29:53;;;;;;;46.63;27.42;;;;;;;;;;5052354;28;20181;-64
2021/01/08 07:32:38;;;;;;;42.42;26.65;;;;;;;;;;5053239;28;20664;-64
2021/01/08 07:35:18;;;;;;;39.88;26.15;;;;;;;;;;5052024;28;20230;-64
2021/01/08 07:37:57;;;;;;;65.40;43.22;;;;;;;;;;5052892;28;20203;-67
2021/01/08 07:40:24;;;;;;;195.05;122.60;;;;;;;;;;5052323;28;20224;-68
2021/01/08 07:42:57;;;;;;;81.40;51.88;;;;;;;;;;5052339;28;20230;-66
2021/01/08 07:45:23;;;;;;;46.17;28.20;;;;;;;;;;5052004;28;20209;-67
2021/01/08 07:47:50;;;;;;;46.83;27.35;;;;;;;;;;5052924;28;20191;-67
2021/01/08 07:50:17;;;;;;;41.85;26.60;;;;;;;;;;5051883;28;20200;-69
2021/01/08 07:52:44;;;;;;;44.72;27.35;;;;;;;;;;5052383;28;20218;-65
2021/01/08 07:55:31;;;;;;;42.50;26.30;;;;;;;;;;5051894;28;20207;-66
2021/01/08 07:58:00;;;;;;;40.42;27.02;;;;;;;;;;5051950;28;20738;-67
2021/01/08 08:00:26;;;;;;;41.78;28.17;;;;;;;;;;5052267;28;20192;-67
2021/01/08 08:02:56;;;;;;;43.53;27.40;;;;;;;;;;5051911;28;20880;-68
2021/01/08 08:05:23;;;;;;;45.38;28.23;;;;;;;;;;5051832;28;20209;-69
2021/01/08 08:07:52;;;;;;;45.00;28.63;;;;;;;;;;5052413;28;20219;-67
2021/01/08 08:10:22;;;;;;;46.05;28.77;;;;;;;;;;5052160;28;20603;-65
2021/01/08 08:12:50;;;;;;;46.08;29.23;;;;;;;;;;5052016;28;20261;-66
2021/01/08 08:15:16;;;;;;;46.17;30.08;;;;;;;;;;5051910;28;20202;-68
2021/01/08 08:17:44;;;;;;;48.83;29.35;;;;;;;;;;5052249;28;20201;-69
2021/01/08 08:20:18;;;;;;;46.85;29.38;;;;;;;;;;5052077;28;20266;-67
2021/01/08 08:22:44;;;;;;;44.30;28.55;;;;;;;;;;5052479;28;20204;-68
2021/01/08 08:25:23;;;;;;;54.00;31.30;;;;;;;;;;5054223;28;20193;-68
2021/01/08 08:27:57;;;;;;;104.85;72.20;;;;;;;;;;5051645;28;20200;-66
2021/01/08 08:30:23;;;;;;;51.28;30.00;;;;;;;;;;5051577;28;20220;-68
2021/01/08 08:32:49;;;;;;;46.63;28.65;;;;;;;;;;5050959;28;20210;-69
2021/01/08 08:35:16;;;;;;;44.90;27.77;;;;;;;;;;5050616;28;20240;-69
2021/01/08 08:37:51;;;;;;;44.22;27.50;;;;;;;;;;5051691;28;20281;-67
2021/01/08 08:40:20;;;;;;;43.78;28.25;;;;;;;;;;5051301;28;20195;-68
2021/01/08 08:42:50;;;;;;;41.67;25.05;;;;;;;;;;5051596;28;20219;-67
2021/01/08 08:45:35;;;;;;;44.35;28.98;;;;;;;;;;5050977;28;20270;-68
2021/01/08 08:48:05;;;;;;;46.05;29.15;;;;;;;;;;5051850;28;20576;-69
2021/01/08 08:50:32;;;;;;;44.60;28.00;;;;;;;;;;5051181;28;20340;-68
2021/01/08 08:52:59;;;;;;;40.75;26.20;;;;;;;;;;5052285;28;20749;-68
2021/01/08 08:55:26;;;;;;;43.55;27.67;;;;;;;;;;5051201;28;20196;-67
2021/01/08 08:57:59;;;;;;;42.67;27.17;;;;;;;;;;5051083;28;20196;-69
2021/01/08 09:00:26;;;;;;;40.58;26.48;;;;;;;;;;5050902;28;20595;-67
2021/01/08 09:02:52;;;;;;;52.55;27.23;;;;;;;;;;5050212;28;20759;-68
2021/01/08 09:05:19;;;;;;;39.95;25.92;;;;;;;;;;5051012;28;20188;-69
2021/01/08 09:07:50;;;;;;;42.42;26.73;;;;;;;;;;5051579;28;20189;-68
2021/01/08 09:10:21;;;;;;;39.30;25.60;;;;;;;;;;5050614;28;20295;-68
2021/01/08 09:12:56;;;;;;;36.15;24.65;;;;;;;;;;5051271;28;20180;-67
2021/01/08 09:15:30;;;;;;;40.05;24.80;;;;;;;;;;5050608;28;20210;-67
2021/01/08 09:18:07;;;;;;;35.75;23.55;;;;;;;;;;5050965;28;20216;-67
2021/01/08 09:20:50;;;;;;;39.50;24.13;;;;;;;;;;5050719;28;20200;-67
2021/01/08 09:23:17;;;;;;;43.75;24.50;;;;;;;;;;5050628;28;20312;-66
2021/01/08 09:25:43;;;;;;;41.78;24.17;;;;;;;;;;5050715;28;20211;-67
2021/01/08 09:28:16;;;;;;;36.10;22.67;;;;;;;;;;5050964;28;20215;-68
2021/01/08 09:30:49;;;;;;;37.88;23.63;;;;;;;;;;5050202;28;20199;-68
2021/01/08 09:33:16;;;;;;;32.85;22.75;;;;;;;;;;5050899;28;20200;-67
2021/01/08 09:35:43;;;;;;;33.20;21.45;;;;;;;;;;5049504;28;20343;-69
2021/01/08 09:38:12;;;;;;;39.92;25.83;;;;;;;;;;5050605;28;20200;-67
2021/01/08 09:40:39;;;;;;;36.25;22.75;;;;;;;;;;5050102;28;20263;-69
2021/01/08 09:43:13;;;;;;;31.87;22.63;;;;;;;;;;5050022;28;20224;-70
2021/01/08 09:45:41;;;;;;;29.55;19.70;;;;;;;;;;5049548;28;20446;-67
2021/01/08 09:48:19;;;;;;;89.70;61.95;;;;;;;;;;5050296;28;20188;-65
2021/01/08 09:50:45;;;;;;;48.90;30.35;;;;;;;;;;5049893;28;20204;-67
2021/01/08 09:53:13;;;;;;;49.65;34.40;;;;;;;;;;5051698;28;20200;-69
2021/01/08 09:55:39;;;;;;;35.28;23.55;;;;;;;;;;5051795;28;20340;-67
2021/01/08 09:58:05;;;;;;;38.38;24.85;;;;;;;;;;5050324;28;20200;-68
2021/01/08 10:00:35;;;;;;;34.85;23.80;;;;;;;;;;5049772;28;20275;-66
2021/01/08 10:03:21;;;;;;;34.03;23.98;;;;;;;;;;5050180;28;20216;-69
2021/01/08 10:05:47;;;;;;;39.10;25.63;;;;;;;;;;5049201;28;20192;-65
2021/01/08 10:08:20;;;;;;;36.83;23.67;;;;;;;;;;5049906;28;20222;-66
2021/01/08 10:10:47;;;;;;;36.77;24.17;;;;;;;;;;5049524;28;20631;-66
2021/01/08 10:13:17;;;;;;;36.78;25.15;;;;;;;;;;5049557;28;20438;-68
2021/01/08 10:15:46;;;;;;;37.97;24.90;;;;;;;;;;5049720;28;20205;-69
2021/01/08 10:18:13;;;;;;;36.03;24.57;;;;;;;;;;5050057;28;20479;-66
2021/01/08 10:20:47;;;;;;;40.20;26.20;;;;;;;;;;5049635;28;20443;-67
2021/01/08 10:23:14;;;;;;;37.30;25.37;;;;;;;;;;5049758;28;20869;-68
2021/01/08 10:25:41;;;;;;;42.60;27.13;;;;;;;;;;5048967;28;20550;-67
2021/01/08 10:28:11;;;;;;;42.00;26.10;;;;;;;;;;5049274;28;20212;-65
2021/01/08 10:30:37;;;;;;;45.90;27.57;;;;;;;;;;5049312;28;20432;-67
2021/01/08 10:33:05;;;;;;;41.40;26.23;;;;;;;;;;5049285;28;20443;-66
2021/01/08 10:35:31;;;;;;;42.53;27.47;;;;;;;;;;5049028;28;20466;-66
2021/01/08 10:37:57;;;;;;;44.40;28.57;;;;;;;;;;5049447;28;20478;-63
2021/01/08 10:40:24;;;;;;;42.30;27.50;;;;;;;;;;5047067;28;20443;-64
2021/01/08 10:42:50;;;;;;;40.17;26.70;;;;;;;;;;5049282;28;20477;-65
2021/01/08 10:45:17;;;;;;;44.93;31.13;;;;;;;;;;5049263;28;20458;-67
2021/01/08 10:47:47;;;;;;;56.70;37.67;;;;;;;;;;5049543;28;21043;-67
2021/01/08 10:50:18;;;;;;;52.47;33.57;;;;;;;;;;5049492;28;20449;-67
2021/01/08 10:52:45;;;;;;;43.87;28.73;;;;;;;;;;5051044;28;20481;-63
2021/01/08 10:55:22;;;;;;;48.43;30.87;;;;;;;;;;5049846;28;20434;-67
2021/01/08 10:57:48;;;;;;;46.63;30.53;;;;;;;;;;5049299;28;20449;-68
2021/01/08 11:00:17;;;;;;;44.17;29.23;;;;;;;;;;5049171;28;20454;-66
2021/01/08 11:02:43;;;;;;;37.13;23.23;;;;;;;;;;5049201;28;20467;-65
2021/01/08 11:05:10;;;;;;;34.43;22.33;;;;;;;;;;5048297;28;20443;-67
2021/01/08 11:07:36;;;;;;;44.37;22.60;;;;;;;;;;5049334;28;20533;-64
2021/01/08 11:10:03;;;;;;;35.00;20.17;;;;;;;;;;5048913;28;21117;-66
2021/01/08 11:12:31;;;;;;;29.07;19.43;;;;;;;;;;5049164;28;20458;-65
2021/01/08 11:14:58;;;;;;;28.97;20.87;;;;;;;;;;5048342;28;20438;-66
2021/01/08 11:17:24;;;;;;;28.57;19.77;;;;;;;;;;5049123;28;20455;-64
2021/01/08 11:19:51;;;;;;;29.90;19.27;;;;;;;;;;5047197;28;20888;-65
2021/01/08 11:22:17;;;;;;;30.30;19.37;;;;;;;;;;5048401;28;21034;-65
2021/01/08 11:24:43;;;;;;;23.00;17.00;;;;;;;;;;5054447;28;20834;-66
2021/01/08 11:27:10;;;;;;;29.87;18.77;;;;;;;;;;5048472;28;20428;-66
2021/01/08 11:29:36;;;;;;;27.97;17.20;;;;;;;;;;5048876;28;20478;-65
2021/01/08 11:32:06;;;;;;;29.13;18.67;;;;;;;;;;5049409;28;20833;-66
2021/01/08 11:34:35;;;;;;;29.33;18.33;;;;;;;;;;5049243;28;20965;-66
2021/01/08 11:37:01;;;;;;;26.57;18.90;;;;;;;;;;5048888;28;20530;-64
2021/01/08 11:39:41;;;;;;;30.70;21.10;;;;;;;;;;5048300;28;20446;-64
2021/01/08 11:42:08;;;;;;;32.67;20.67;;;;;;;;;;5050167;28;20535;-64
2021/01/08 11:44:35;;;;;;;32.63;22.20;;;;;;;;;;5048629;28;20482;-66
2021/01/08 11:47:01;;;;;;;31.57;20.70;;;;;;;;;;5048774;28;20893;-66
2021/01/08 11:49:28;;;;;;;25.63;17.83;;;;;;;;;;5048862;28;20970;-64
2021/01/08 11:51:56;;;;;;;27.57;18.63;;;;;;;;;;5048940;28;20462;-66
2021/01/08 11:54:23;;;;;;;27.50;17.40;;;;;;;;;;5048520;28;20447;-65
2021/01/08 11:56:49;;;;;;;25.70;18.10;;;;;;;;;;5048589;28;21029;-64
2021/01/08 11:59:18;;;;;;;23.93;16.37;;;;;;;;;;5048383;28;20431;-64
2021/01/08 12:01:44;;;;;;;24.83;15.13;;;;;;;;;;5048536;28;20538;-66
2021/01/08 12:04:11;;;;;;;24.17;16.13;;;;;;;;;;5048906;28;20698;-64
2021/01/08 12:06:38;;;;;;;25.33;17.17;;;;;;;;;;5049623;28;20453;-65
2021/01/08 12:09:07;;;;;;;193.30;145.57;;;;;;;;;;5051148;28;20425;-67
2021/01/08 12:11:34;;;;;;;21.20;16.07;;;;;;;;;;5052404;28;20470;-64
2021/01/08 12:14:02;;;;;;;24.80;16.67;;;;;;;;;;5052528;28;20446;-64
2021/01/08 12:16:31;;;;;;;23.77;16.50;;;;;;;;;;5052207;28;20536;-65
2021/01/08 12:18:59;;;;;;;27.23;15.73;;;;;;;;;;5052989;28;20807;-67
2021/01/08 12:21:27;;;;;;;27.87;17.77;;;;;;;;;;5052478;28;20447;-66
2021/01/08 12:23:54;;;;;;;28.97;19.23;;;;;;;;;;5052049;28;20517;-67
2021/01/08 12:26:20;;;;;;;28.47;20.27;;;;;;;;;;5051884;28;20811;-64
2021/01/08 12:28:48;;;;;;;52.97;37.77;;;;;;;;;;5053209;28;20443;-66
2021/01/08 12:31:15;;;;;;;102.33;76.60;;;;;;;;;;5052064;28;20431;-67
2021/01/08 12:33:42;;;;;;;23.57;15.37;;;;;;;;;;5052359;28;20533;-66
2021/01/08 12:36:09;;;;;;;23.50;15.87;;;;;;;;;;5051336;28;21025;-66
2021/01/08 12:38:35;;;;;;;23.87;16.70;;;;;;;;;;5052139;28;20439;-64
2021/01/08 12:41:02;;;;;;;22.83;16.37;;;;;;;;;;5051661;28;20447;-64
2021/01/08 12:43:29;;;;;;;23.80;16.53;;;;;;;;;;5052064;28;20478;-64
2021/01/08 12:45:55;;;;;;;20.63;15.50;;;;;;;;;;5050608;28;20475;-65
2021/01/08 12:48:22;;;;;;;22.67;15.43;;;;;;;;;;5051445;28;20466;-66
2021/01/08 12:50:48;;;;;;;19.57;14.40;;;;;;;;;;5051292;28;20542;-66
2021/01/08 12:53:14;;;;;;;21.80;15.00;;;;;;;;;;5053604;28;20794;-67
2021/01/08 12:55:40;;;;;;;22.00;14.73;;;;;;;;;;5053265;28;20447;-65
2021/01/08 12:58:07;;;;;;;21.87;14.73;;;;;;;;;;5051715;28;20482;-64
2021/01/08 13:00:33;;;;;;;23.67;14.47;;;;;;;;;;5051041;28;20858;-66
2021/01/08 13:02:59;;;;;;;19.63;11.93;;;;;;;;;;5051379;28;20462;-65
2021/01/08 13:05:25;;;;;;;44.57;31.80;;;;;;;;;;5051040;28;20797;-68
2021/01/08 13:07:52;;;;;;;39.97;27.77;;;;;;;;;;5050958;28;20438;-69
2021/01/08 13:10:18;;;;;;;26.33;17.40;;;;;;;;;;5051104;28;20820;-70
2021/01/08 13:12:44;;;;;;;18.93;13.43;;;;;;;;;;5051628;28;20971;-65
2021/01/08 13:15:11;;;;;;;18.70;12.93;;;;;;;;;;5050363;28;20956;-64
2021/01/08 13:17:37;;;;;;;19.57;12.80;;;;;;;;;;5050999;28;20554;-63
2021/01/08 13:20:04;;;;;;;17.10;12.07;;;;;;;;;;5050101;28;20501;-66
2021/01/08 13:22:30;;;;;;;16.27;12.07;;;;;;;;;;5051111;28;20541;-68
2021/01/08 13:24:56;;;;;;;19.27;12.70;;;;;;;;;;5050433;28;20508;-66
2021/01/08 13:27:23;;;;;;;21.53;13.90;;;;;;;;;;5051176;28;20458;-67
2021/01/08 13:29:49;;;;;;;22.57;15.80;;;;;;;;;;5050759;28;20504;-66
2021/01/08 13:32:15;;;;;;;23.53;15.53;;;;;;;;;;5050965;28;20442;-63
2021/01/08 13:34:42;;;;;;;42.47;28.53;;;;;;;;;;5049531;28;20556;-65
2021/01/08 13:37:08;;;;;;;29.90;18.40;;;;;;;;;;5050969;28;20457;-66
2021/01/08 13:39:34;;;;;;;29.03;18.30;;;;;;;;;;5050418;28;20595;-66
2021/01/08 13:42:02;;;;;;;32.40;20.17;;;;;;;;;;5050431;28;20428;-67
2021/01/08 13:44:28;;;;;;;27.23;18.80;;;;;;;;;;5050132;28;20486;-68
2021/01/08 13:46:55;;;;;;;28.53;18.73;;;;;;;;;;5050471;28;20427;-71
2021/01/08 13:49:21;;;;;;;32.27;17.67;;;;;;;;;;5050603;28;20443;-67
2021/01/08 13:51:47;;;;;;;28.57;19.30;;;;;;;;;;5050567;28;20451;-70
2021/01/08 13:54:14;;;;;;;28.87;18.07;;;;;;;;;;5049939;28;20444;-67
2021/01/08 13:56:40;;;;;;;29.20;19.47;;;;;;;;;;5050472;28;20439;-67
2021/01/08 13:59:06;;;;;;;27.97;17.63;;;;;;;;;;5050137;28;20949;-66
2021/01/08 14:01:32;;;;;;;26.57;18.67;;;;;;;;;;5050720;28;20447;-67
2021/01/08 14:03:59;;;;;;;28.83;19.03;;;;;;;;;;5049835;28;21207;-69
2021/01/08 14:06:26;;;;;;;25.30;18.27;;;;;;;;;;5050441;28;20427;-68
2021/01/08 14:08:54;;;;;;;27.60;18.57;;;;;;;;;;5049931;28;20443;-68
2021/01/08 14:11:28;;;;;;;31.00;18.90;;;;;;;;;;5050299;28;20442;-66
2021/01/08 14:13:55;;;;;;;27.83;18.43;;;;;;;;;;5049591;28;20439;-67
2021/01/08 14:16:22;;;;;;;29.97;20.20;;;;;;;;;;5050127;28;20541;-67
2021/01/08 14:18:49;;;;;;;34.40;19.77;;;;;;;;;;5050294;28;20882;-66
2021/01/08 14:21:24;;;;;;;27.00;17.77;;;;;;;;;;5049527;28;20446;-69
2021/01/08 14:23:51;;;;;;;36.00;22.97;;;;;;;;;;5052360;28;20536;-67
2021/01/08 14:26:21;;;;;;;154.43;115.70;;;;;;;;;;5049701;28;20538;-67